sensor_id;sensor_type;location;lat;lon;timestamp;pressure;altitude;pressure_sealevel;temperature;humidity
18167;BME280;9208;42.688;23.404;2023-02-22T00:01:18;95422.41;;;7.92;60.76
18167;BME280;9208;42.688;23.404;2023-02-22T00:03:52;95413.00;;;7.93;60.99
18167;BME280;9208;42.688;23.404;2023-02-22T00:06:21;95419.22;;;7.93;60.81
18167;BME280;9208;42.688;23.404;2023-02-22T00:08:49;95404.69;;;7.87;60.80
18167;BME280;9208;42.688;23.404;2023-02-22T00:11:16;95418.66;;;7.80;61.93
18167;BME280;9208;42.688;23.404;2023-02-22T00:13:42;95410.47;;;7.80;62.15
18167;BME280;9208;42.688;23.404;2023-02-22T00:16:13;95417.28;;;7.85;62.00
18167;BME280;9208;42.688;23.404;2023-02-22T00:18:38;95409.38;;;7.87;62.13
18167;BME280;9208;42.688;23.404;2023-02-22T00:21:04;95418.63;;;7.89;61.96
18167;BME280;9208;42.688;23.404;2023-02-22T00:23:30;95411.06;;;7.84;62.48
18167;BME280;9208;42.688;23.404;2023-02-22T00:25:57;95406.22;;;7.79;63.05
18167;BME280;9208;42.688;23.404;2023-02-22T00:28:23;95409.56;;;7.83;62.42
18167;BME280;9208;42.688;23.404;2023-02-22T00:30:50;95400.94;;;7.76;63.00
18167;BME280;9208;42.688;23.404;2023-02-22T00:33:22;95402.44;;;7.77;63.17
18167;BME280;9208;42.688;23.404;2023-02-22T00:35:47;95398.94;;;7.76;63.25
18167;BME280;9208;42.688;23.404;2023-02-22T00:38:15;95400.03;;;7.70;62.84
18167;BME280;9208;42.688;23.404;2023-02-22T00:40:41;95398.06;;;7.70;62.24
18167;BME280;9208;42.688;23.404;2023-02-22T00:43:07;95397.78;;;7.59;62.40
18167;BME280;9208;42.688;23.404;2023-02-22T00:45:34;95397.78;;;7.59;63.08
18167;BME280;9208;42.688;23.404;2023-02-22T00:48:00;95385.69;;;7.60;63.10
18167;BME280;9208;42.688;23.404;2023-02-22T00:50:27;95380.31;;;7.75;62.41
18167;BME280;9208;42.688;23.404;2023-02-22T00:52:54;95382.09;;;7.87;62.11
18167;BME280;9208;42.688;23.404;2023-02-22T00:55:30;95381.75;;;7.94;61.87
18167;BME280;9208;42.688;23.404;2023-02-22T00:57:59;95392.34;;;8.01;60.82
18167;BME280;9208;42.688;23.404;2023-02-22T01:00:40;95396.03;;;7.89;61.30
18167;BME280;9208;42.688;23.404;2023-02-22T01:03:08;95386.06;;;7.77;61.67
18167;BME280;9208;42.688;23.404;2023-02-22T01:05:35;95375.97;;;7.68;62.13
18167;BME280;9208;42.688;23.404;2023-02-22T01:08:03;95376.84;;;7.74;61.96
18167;BME280;9208;42.688;23.404;2023-02-22T01:10:30;95377.25;;;7.82;62.13
18167;BME280;9208;42.688;23.404;2023-02-22T01:12:57;95376.16;;;7.88;61.78
18167;BME280;9208;42.688;23.404;2023-02-22T01:15:25;95378.03;;;7.82;62.16
18167;BME280;9208;42.688;23.404;2023-02-22T01:17:53;95368.69;;;7.65;62.96
18167;BME280;9208;42.688;23.404;2023-02-22T01:20:22;95360.41;;;7.51;63.84
18167;BME280;9208;42.688;23.404;2023-02-22T01:22:51;95361.47;;;7.44;63.98
18167;BME280;9208;42.688;23.404;2023-02-22T01:25:21;95352.72;;;7.31;65.08
18167;BME280;9208;42.688;23.404;2023-02-22T01:27:47;95349.53;;;7.33;64.88
18167;BME280;9208;42.688;23.404;2023-02-22T01:30:15;95345.91;;;7.36;65.57
18167;BME280;9208;42.688;23.404;2023-02-22T01:32:41;95344.09;;;7.24;65.85
18167;BME280;9208;42.688;23.404;2023-02-22T01:35:13;95338.19;;;7.25;65.48
18167;BME280;9208;42.688;23.404;2023-02-22T01:37:40;95337.78;;;7.18;65.99
18167;BME280;9208;42.688;23.404;2023-02-22T01:40:08;95342.28;;;7.21;65.80
18167;BME280;9208;42.688;23.404;2023-02-22T01:42:35;95341.84;;;7.13;65.77
18167;BME280;9208;42.688;23.404;2023-02-22T01:48:19;95325.56;;;6.86;67.37
18167;BME280;9208;42.688;23.404;2023-02-22T01:51:00;95315.72;;;6.71;67.84
18167;BME280;9208;42.688;23.404;2023-02-22T01:53:33;95323.78;;;6.65;68.86
18167;BME280;9208;42.688;23.404;2023-02-22T01:56:01;95326.19;;;6.45;69.52
18167;BME280;9208;42.688;23.404;2023-02-22T01:58:29;95332.22;;;6.31;70.26
18167;BME280;9208;42.688;23.404;2023-02-22T02:00:57;95322.84;;;6.23;71.53
18167;BME280;9208;42.688;23.404;2023-02-22T02:03:25;95322.84;;;6.23;70.36
18167;BME280;9208;42.688;23.404;2023-02-22T02:05:55;95330.72;;;6.21;71.20
18167;BME280;9208;42.688;23.404;2023-02-22T02:08:46;95323.44;;;6.18;70.69
18167;BME280;9208;42.688;23.404;2023-02-22T02:11:19;95321.03;;;6.20;71.22
18167;BME280;9208;42.688;23.404;2023-02-22T02:13:45;95325.72;;;6.20;70.58
18167;BME280;9208;42.688;23.404;2023-02-22T02:16:11;95329.94;;;6.12;70.58
18167;BME280;9208;42.688;23.404;2023-02-22T02:18:36;95325.53;;;6.14;70.86
18167;BME280;9208;42.688;23.404;2023-02-22T02:27:12;95321.75;;;6.03;72.32
18167;BME280;9208;42.688;23.404;2023-02-22T02:35:57;95319.00;;;5.94;73.03
18167;BME280;9208;42.688;23.404;2023-02-22T02:38:10;95327.47;;;5.87;73.40
18167;BME280;9208;42.688;23.404;2023-02-22T02:40:44;95325.59;;;5.75;75.57
18167;BME280;9208;42.688;23.404;2023-02-22T02:45:47;95322.72;;;5.78;75.80
18167;BME280;9208;42.688;23.404;2023-02-22T02:48:16;95320.44;;;5.77;76.55
18167;BME280;9208;42.688;23.404;2023-02-22T02:50:46;95323.00;;;5.62;77.68
18167;BME280;9208;42.688;23.404;2023-02-22T02:53:16;95316.78;;;5.62;77.32
18167;BME280;9208;42.688;23.404;2023-02-22T02:55:42;95326.88;;;5.61;77.85
18167;BME280;9208;42.688;23.404;2023-02-22T02:58:16;95338.53;;;5.62;78.14
18167;BME280;9208;42.688;23.404;2023-02-22T03:00:43;95331.78;;;5.66;77.59
18167;BME280;9208;42.688;23.404;2023-02-22T03:03:35;95341.00;;;5.69;77.44
18167;BME280;9208;42.688;23.404;2023-02-22T03:08:52;95345.03;;;5.64;77.80
18167;BME280;9208;42.688;23.404;2023-02-22T03:11:26;95348.78;;;5.58;78.82
18167;BME280;9208;42.688;23.404;2023-02-22T03:13:58;95345.63;;;5.59;78.18
18167;BME280;9208;42.688;23.404;2023-02-22T03:21:36;95366.53;;;5.71;77.73
18167;BME280;9208;42.688;23.404;2023-02-22T03:26:39;95371.25;;;5.80;76.32
18167;BME280;9208;42.688;23.404;2023-02-22T03:29:07;95380.19;;;5.80;76.17
18167;BME280;9208;42.688;23.404;2023-02-22T03:31:40;95378.41;;;5.86;77.24
18167;BME280;9208;42.688;23.404;2023-02-22T03:34:17;95381.72;;;5.81;76.84
18167;BME280;9208;42.688;23.404;2023-02-22T03:36:47;95384.16;;;5.97;76.12
18167;BME280;9208;42.688;23.404;2023-02-22T03:39:15;95391.47;;;6.09;74.81
18167;BME280;9208;42.688;23.404;2023-02-22T03:41:46;95391.19;;;6.16;74.19
18167;BME280;9208;42.688;23.404;2023-02-22T03:44:15;95394.41;;;6.33;72.60
18167;BME280;9208;42.688;23.404;2023-02-22T03:46:43;95401.97;;;6.38;71.31
18167;BME280;9208;42.688;23.404;2023-02-22T03:49:12;95412.69;;;6.41;70.62
18167;BME280;9208;42.688;23.404;2023-02-22T03:51:39;95400.00;;;6.38;71.65
18167;BME280;9208;42.688;23.404;2023-02-22T03:54:05;95405.28;;;6.33;71.96
18167;BME280;9208;42.688;23.404;2023-02-22T03:56:37;95399.69;;;6.36;72.41
18167;BME280;9208;42.688;23.404;2023-02-22T03:59:08;95394.09;;;6.49;72.17
18167;BME280;9208;42.688;23.404;2023-02-22T04:01:35;95397.59;;;6.58;72.17
18167;BME280;9208;42.688;23.404;2023-02-22T04:04:01;95395.16;;;6.60;72.41
18167;BME280;9208;42.688;23.404;2023-02-22T04:06:27;95400.78;;;6.66;71.21
18167;BME280;9208;42.688;23.404;2023-02-22T04:08:53;95409.72;;;6.66;70.18
18167;BME280;9208;42.688;23.404;2023-02-22T04:11:19;95413.34;;;6.63;70.18
18167;BME280;9208;42.688;23.404;2023-02-22T04:13:44;95406.06;;;6.60;70.72
18167;BME280;9208;42.688;23.404;2023-02-22T04:16:10;95407.88;;;6.63;71.17
18167;BME280;9208;42.688;23.404;2023-02-22T04:18:35;95406.84;;;6.61;71.64
18167;BME280;9208;42.688;23.404;2023-02-22T04:21:00;95403.03;;;6.58;71.10
18167;BME280;9208;42.688;23.404;2023-02-22T04:23:26;95400.25;;;6.22;71.66
18167;BME280;9208;42.688;23.404;2023-02-22T04:25:52;95415.34;;;6.14;72.07
18167;BME280;9208;42.688;23.404;2023-02-22T04:28:17;95414.25;;;6.03;72.80
18167;BME280;9208;42.688;23.404;2023-02-22T04:30:43;95405.00;;;5.91;73.64
18167;BME280;9208;42.688;23.404;2023-02-22T04:33:10;95402.00;;;5.68;75.56
18167;BME280;9208;42.688;23.404;2023-02-22T04:35:35;95415.56;;;5.59;75.99
18167;BME280;9208;42.688;23.404;2023-02-22T04:38:01;95412.59;;;5.35;77.55
18167;BME280;9208;42.688;23.404;2023-02-22T04:40:28;95406.47;;;5.22;78.10
18167;BME280;9208;42.688;23.404;2023-02-22T04:42:56;95407.53;;;5.03;77.99
18167;BME280;9208;42.688;23.404;2023-02-22T04:45:22;95417.66;;;5.03;77.41
18167;BME280;9208;42.688;23.404;2023-02-22T04:47:47;95429.19;;;4.94;76.91
18167;BME280;9208;42.688;23.404;2023-02-22T04:50:14;95412.44;;;4.74;78.20
18167;BME280;9208;42.688;23.404;2023-02-22T04:52:40;95410.59;;;4.71;79.26
18167;BME280;9208;42.688;23.404;2023-02-22T04:55:05;95420.53;;;4.65;79.62
18167;BME280;9208;42.688;23.404;2023-02-22T04:57:31;95415.31;;;4.58;80.54
18167;BME280;9208;42.688;23.404;2023-02-22T04:59:57;95410.88;;;4.64;82.74
18167;BME280;9208;42.688;23.404;2023-02-22T05:02:22;95422.53;;;4.74;83.84
18167;BME280;9208;42.688;23.404;2023-02-22T05:04:48;95427.94;;;4.86;83.62
18167;BME280;9208;42.688;23.404;2023-02-22T05:07:14;95428.31;;;4.76;84.31
18167;BME280;9208;42.688;23.404;2023-02-22T05:09:39;95434.69;;;4.82;83.32
18167;BME280;9208;42.688;23.404;2023-02-22T05:12:05;95438.91;;;4.83;83.80
18167;BME280;9208;42.688;23.404;2023-02-22T05:14:31;95440.03;;;4.73;84.29
18167;BME280;9208;42.688;23.404;2023-02-22T05:16:57;95437.31;;;4.73;83.71
18167;BME280;9208;42.688;23.404;2023-02-22T05:19:23;95450.47;;;4.74;85.39
18167;BME280;9208;42.688;23.404;2023-02-22T05:21:48;95448.91;;;4.86;84.48
18167;BME280;9208;42.688;23.404;2023-02-22T05:24:14;95451.41;;;4.80;84.48
18167;BME280;9208;42.688;23.404;2023-02-22T05:26:43;95452.66;;;4.67;84.30
18167;BME280;9208;42.688;23.404;2023-02-22T05:29:09;95464.09;;;4.62;85.03
18167;BME280;9208;42.688;23.404;2023-02-22T05:31:34;95467.03;;;4.55;85.65
18167;BME280;9208;42.688;23.404;2023-02-22T05:33:59;95471.06;;;4.50;85.97
18167;BME280;9208;42.688;23.404;2023-02-22T05:36:25;95494.50;;;4.57;85.83
18167;BME280;9208;42.688;23.404;2023-02-22T05:38:55;95490.25;;;4.56;86.59
18167;BME280;9208;42.688;23.404;2023-02-22T05:41:20;95499.25;;;4.65;86.45
18167;BME280;9208;42.688;23.404;2023-02-22T05:43:46;95508.03;;;4.69;86.03
18167;BME280;9208;42.688;23.404;2023-02-22T05:46:13;95506.84;;;4.70;86.45
18167;BME280;9208;42.688;23.404;2023-02-22T05:48:38;95518.13;;;4.81;85.54
18167;BME280;9208;42.688;23.404;2023-02-22T05:51:04;95515.50;;;4.90;85.31
18167;BME280;9208;42.688;23.404;2023-02-22T05:53:30;95513.59;;;5.00;84.55
18167;BME280;9208;42.688;23.404;2023-02-22T05:55:56;95512.53;;;4.97;85.59
18167;BME280;9208;42.688;23.404;2023-02-22T05:58:21;95517.59;;;5.08;85.63
18167;BME280;9208;42.688;23.404;2023-02-22T06:00:47;95510.66;;;5.07;85.75
18167;BME280;9208;42.688;23.404;2023-02-22T06:03:13;95519.88;;;5.09;86.68
18167;BME280;9208;42.688;23.404;2023-02-22T06:05:38;95517.38;;;5.15;86.72
18167;BME280;9208;42.688;23.404;2023-02-22T06:08:05;95521.03;;;5.21;86.49
18167;BME280;9208;42.688;23.404;2023-02-22T06:10:32;95522.75;;;5.27;86.31
18167;BME280;9208;42.688;23.404;2023-02-22T06:12:58;95527.19;;;5.34;86.19
18167;BME280;9208;42.688;23.404;2023-02-22T06:15:25;95520.59;;;5.44;85.39
18167;BME280;9208;42.688;23.404;2023-02-22T06:17:54;95519.72;;;5.47;85.90
18167;BME280;9208;42.688;23.404;2023-02-22T06:20:22;95531.53;;;5.53;85.54
18167;BME280;9208;42.688;23.404;2023-02-22T06:22:49;95528.69;;;5.56;85.52
18167;BME280;9208;42.688;23.404;2023-02-22T06:25:18;95524.84;;;5.66;84.97
18167;BME280;9208;42.688;23.404;2023-02-22T06:27:44;95525.47;;;5.70;83.88
18167;BME280;9208;42.688;23.404;2023-02-22T06:30:10;95522.50;;;5.77;82.98
18167;BME280;9208;42.688;23.404;2023-02-22T06:32:37;95526.81;;;5.87;82.74
18167;BME280;9208;42.688;23.404;2023-02-22T06:35:03;95528.22;;;5.92;82.08
18167;BME280;9208;42.688;23.404;2023-02-22T06:37:28;95531.13;;;6.06;81.00
18167;BME280;9208;42.688;23.404;2023-02-22T06:39:54;95539.03;;;6.13;80.54
18167;BME280;9208;42.688;23.404;2023-02-22T06:42:19;95534.84;;;6.21;80.84
18167;BME280;9208;42.688;23.404;2023-02-22T06:44:45;95536.69;;;6.33;81.19
18167;BME280;9208;42.688;23.404;2023-02-22T06:47:10;95539.78;;;6.44;80.43
18167;BME280;9208;42.688;23.404;2023-02-22T06:49:35;95535.59;;;6.52;81.94
18167;BME280;9208;42.688;23.404;2023-02-22T06:52:04;95529.72;;;6.63;82.73
18167;BME280;9208;42.688;23.404;2023-02-22T06:54:29;95532.16;;;6.70;83.74
18167;BME280;9208;42.688;23.404;2023-02-22T06:56:54;95536.81;;;6.69;84.40
18167;BME280;9208;42.688;23.404;2023-02-22T06:59:20;95542.00;;;6.76;83.37
18167;BME280;9208;42.688;23.404;2023-02-22T07:01:47;95528.22;;;6.71;84.37
18167;BME280;9208;42.688;23.404;2023-02-22T07:04:13;95532.75;;;6.74;83.65
18167;BME280;9208;42.688;23.404;2023-02-22T07:06:44;95541.56;;;6.78;82.66
18167;BME280;9208;42.688;23.404;2023-02-22T07:09:11;95539.13;;;6.80;82.46
18167;BME280;9208;42.688;23.404;2023-02-22T07:11:38;95540.81;;;6.86;81.95
18167;BME280;9208;42.688;23.404;2023-02-22T07:14:04;95542.66;;;6.89;82.08
18167;BME280;9208;42.688;23.404;2023-02-22T07:16:29;95542.94;;;6.91;82.82
18167;BME280;9208;42.688;23.404;2023-02-22T07:18:54;95535.81;;;6.94;82.90
18167;BME280;9208;42.688;23.404;2023-02-22T07:21:25;95540.53;;;6.93;82.72
18167;BME280;9208;42.688;23.404;2023-02-22T07:23:55;95537.78;;;6.84;83.58
18167;BME280;9208;42.688;23.404;2023-02-22T07:26:22;95546.25;;;6.86;83.50
18167;BME280;9208;42.688;23.404;2023-02-22T07:28:48;95530.84;;;6.92;83.34
18167;BME280;9208;42.688;23.404;2023-02-22T07:31:13;95520.69;;;7.02;82.29
18167;BME280;9208;42.688;23.404;2023-02-22T07:33:39;95519.97;;;7.01;82.47
18167;BME280;9208;42.688;23.404;2023-02-22T07:36:05;95526.59;;;7.09;81.95
18167;BME280;9208;42.688;23.404;2023-02-22T07:38:31;95523.16;;;7.18;81.61
18167;BME280;9208;42.688;23.404;2023-02-22T07:40:56;95519.38;;;7.15;80.40
18167;BME280;9208;42.688;23.404;2023-02-22T07:43:25;95530.28;;;7.33;79.75
18167;BME280;9208;42.688;23.404;2023-02-22T07:45:53;95520.56;;;7.50;78.42
18167;BME280;9208;42.688;23.404;2023-02-22T07:48:21;95523.28;;;7.50;78.79
18167;BME280;9208;42.688;23.404;2023-02-22T07:50:47;95530.28;;;7.51;78.35
18167;BME280;9208;42.688;23.404;2023-02-22T07:53:18;95525.56;;;7.61;77.78
18167;BME280;9208;42.688;23.404;2023-02-22T07:55:44;95517.69;;;7.72;76.65
18167;BME280;9208;42.688;23.404;2023-02-22T07:58:13;95518.88;;;7.80;76.91
18167;BME280;9208;42.688;23.404;2023-02-22T08:00:40;95526.28;;;7.88;75.96
18167;BME280;9208;42.688;23.404;2023-02-22T08:03:10;95527.78;;;7.98;74.92
18167;BME280;9208;42.688;23.404;2023-02-22T08:05:40;95528.34;;;8.11;73.46
18167;BME280;9208;42.688;23.404;2023-02-22T08:08:06;95518.94;;;8.21;72.61
18167;BME280;9208;42.688;23.404;2023-02-22T08:10:33;95524.38;;;8.30;72.30
18167;BME280;9208;42.688;23.404;2023-02-22T08:12:59;95521.59;;;8.39;72.17
18167;BME280;9208;42.688;23.404;2023-02-22T08:15:30;95517.47;;;8.53;71.44
18167;BME280;9208;42.688;23.404;2023-02-22T08:17:57;95511.00;;;8.65;69.90
18167;BME280;9208;42.688;23.404;2023-02-22T08:20:24;95514.13;;;8.81;68.20
18167;BME280;9208;42.688;23.404;2023-02-22T08:22:50;95530.88;;;8.98;66.84
18167;BME280;9208;42.688;23.404;2023-02-22T08:25:16;95530.94;;;9.12;65.85
18167;BME280;9208;42.688;23.404;2023-02-22T08:27:42;95529.66;;;9.22;64.89
18167;BME280;9208;42.688;23.404;2023-02-22T08:30:14;95534.75;;;9.29;63.58
18167;BME280;9208;42.688;23.404;2023-02-22T08:32:41;95540.59;;;9.46;62.76
18167;BME280;9208;42.688;23.404;2023-02-22T08:35:07;95537.59;;;9.58;62.08
18167;BME280;9208;42.688;23.404;2023-02-22T08:37:33;95533.09;;;9.70;61.97
18167;BME280;9208;42.688;23.404;2023-02-22T08:39:58;95532.53;;;9.80;60.85
18167;BME280;9208;42.688;23.404;2023-02-22T08:42:23;95533.97;;;9.90;60.26
18167;BME280;9208;42.688;23.404;2023-02-22T08:44:49;95542.34;;;10.01;59.52
18167;BME280;9208;42.688;23.404;2023-02-22T08:47:15;95545.03;;;10.10;59.00
18167;BME280;9208;42.688;23.404;2023-02-22T08:49:40;95542.50;;;10.22;59.40
18167;BME280;9208;42.688;23.404;2023-02-22T08:52:07;95540.22;;;10.35;58.75
18167;BME280;9208;42.688;23.404;2023-02-22T08:54:32;95551.34;;;10.46;58.54
18167;BME280;9208;42.688;23.404;2023-02-22T08:56:58;95552.50;;;10.54;58.30
18167;BME280;9208;42.688;23.404;2023-02-22T08:59:23;95547.16;;;10.65;57.92
18167;BME280;9208;42.688;23.404;2023-02-22T09:01:49;95547.34;;;10.76;57.32
18167;BME280;9208;42.688;23.404;2023-02-22T09:04:14;95558.75;;;10.89;57.41
18167;BME280;9208;42.688;23.404;2023-02-22T09:06:40;95554.19;;;11.00;56.67
18167;BME280;9208;42.688;23.404;2023-02-22T09:09:06;95548.84;;;11.11;57.26
18167;BME280;9208;42.688;23.404;2023-02-22T09:11:31;95547.84;;;11.29;56.45
18167;BME280;9208;42.688;23.404;2023-02-22T09:13:57;95552.69;;;11.39;56.33
18167;BME280;9208;42.688;23.404;2023-02-22T09:16:22;95553.88;;;11.53;55.34
18167;BME280;9208;42.688;23.404;2023-02-22T09:18:47;95558.03;;;11.63;55.31
18167;BME280;9208;42.688;23.404;2023-02-22T09:21:13;95559.13;;;11.71;54.83
18167;BME280;9208;42.688;23.404;2023-02-22T09:23:38;95555.75;;;11.81;54.84
18167;BME280;9208;42.688;23.404;2023-02-22T09:26:07;95550.09;;;11.90;54.59
18167;BME280;9208;42.688;23.404;2023-02-22T09:28:33;95558.25;;;12.05;54.13
18167;BME280;9208;42.688;23.404;2023-02-22T09:30:58;95551.91;;;12.19;54.03
18167;BME280;9208;42.688;23.404;2023-02-22T09:33:24;95557.00;;;12.31;53.14
18167;BME280;9208;42.688;23.404;2023-02-22T09:35:50;95556.06;;;12.40;53.17
18167;BME280;9208;42.688;23.404;2023-02-22T09:38:18;95552.72;;;12.56;52.72
18167;BME280;9208;42.688;23.404;2023-02-22T09:48:59;95572.69;;;13.13;50.65
18167;BME280;9208;42.688;23.404;2023-02-22T09:51:30;95562.97;;;13.23;50.46
18167;BME280;9208;42.688;23.404;2023-02-22T09:54:01;95575.06;;;13.36;49.97
18167;BME280;9208;42.688;23.404;2023-02-22T09:56:28;95570.59;;;13.44;49.95
18167;BME280;9208;42.688;23.404;2023-02-22T09:59:00;95564.38;;;13.55;49.78
18167;BME280;9208;42.688;23.404;2023-02-22T10:01:36;95574.75;;;13.71;49.24
18167;BME280;9208;42.688;23.404;2023-02-22T10:07:19;95573.31;;;13.97;48.38
18167;BME280;9208;42.688;23.404;2023-02-22T10:09:51;95581.88;;;14.10;47.38
18167;BME280;9208;42.688;23.404;2023-02-22T10:12:37;95589.69;;;14.23;46.39
18167;BME280;9208;42.688;23.404;2023-02-22T10:21:20;95609.34;;;14.58;44.20
18167;BME280;9208;42.688;23.404;2023-02-22T10:23:27;95613.34;;;14.68;43.92
18167;BME280;9208;42.688;23.404;2023-02-22T10:26:00;95635.19;;;14.77;42.20
18167;BME280;9208;42.688;23.404;2023-02-22T10:28:37;95628.91;;;14.82;42.59
18167;BME280;9208;42.688;23.404;2023-02-22T10:31:18;95645.75;;;14.95;41.62
18167;BME280;9208;42.688;23.404;2023-02-22T10:33:47;95652.25;;;14.97;40.30
18167;BME280;9208;42.688;23.404;2023-02-22T10:36:21;95655.03;;;15.08;40.21
18167;BME280;9208;42.688;23.404;2023-02-22T10:38:54;95644.75;;;15.14;40.10
18167;BME280;9208;42.688;23.404;2023-02-22T10:41:32;95633.19;;;15.21;40.80
18167;BME280;9208;42.688;23.404;2023-02-22T10:44:00;95635.22;;;15.26;40.00
18167;BME280;9208;42.688;23.404;2023-02-22T10:46:28;95634.47;;;15.37;39.66
18167;BME280;9208;42.688;23.404;2023-02-22T10:49:00;95636.44;;;15.47;40.01
18167;BME280;9208;42.688;23.404;2023-02-22T10:51:28;95626.66;;;15.52;39.71
18167;BME280;9208;42.688;23.404;2023-02-22T10:54:18;95624.34;;;15.61;39.85
18167;BME280;9208;42.688;23.404;2023-02-22T10:56:53;95611.78;;;15.66;40.51
18167;BME280;9208;42.688;23.404;2023-02-22T10:59:29;95605.75;;;15.73;40.18
18167;BME280;9208;42.688;23.404;2023-02-22T11:01:57;95592.41;;;15.77;41.17
18167;BME280;9208;42.688;23.404;2023-02-22T11:04:23;95582.34;;;15.79;41.36
18167;BME280;9208;42.688;23.404;2023-02-22T11:09:24;95579.53;;;15.96;41.17
18167;BME280;9208;42.688;23.404;2023-02-22T11:12:14;95598.59;;;16.05;40.17
18167;BME280;9208;42.688;23.404;2023-02-22T11:14:40;95583.22;;;16.09;40.55
18167;BME280;9208;42.688;23.404;2023-02-22T11:17:07;95590.00;;;16.14;40.18
18167;BME280;9208;42.688;23.404;2023-02-22T11:19:34;95593.47;;;16.20;39.75
18167;BME280;9208;42.688;23.404;2023-02-22T11:24:28;95594.94;;;16.32;39.16
18167;BME280;9208;42.688;23.404;2023-02-22T11:26:59;95595.66;;;16.38;38.96
18167;BME280;9208;42.688;23.404;2023-02-22T11:29:36;95590.59;;;16.47;39.20
18167;BME280;9208;42.688;23.404;2023-02-22T11:32:11;95598.34;;;16.54;38.52
18167;BME280;9208;42.688;23.404;2023-02-22T11:34:40;95595.03;;;16.61;38.26
18167;BME280;9208;42.688;23.404;2023-02-22T11:40:07;95601.44;;;16.80;37.77
18167;BME280;9208;42.688;23.404;2023-02-22T11:42:36;95595.56;;;16.89;37.73
18167;BME280;9208;42.688;23.404;2023-02-22T11:45:20;95597.53;;;16.94;37.44
18167;BME280;9208;42.688;23.404;2023-02-22T11:52:49;95613.50;;;17.12;36.25
18167;BME280;9208;42.688;23.404;2023-02-22T12:03:05;95625.50;;;17.26;35.12
18167;BME280;9208;42.688;23.404;2023-02-22T12:15:17;95594.38;;;17.38;35.81
18167;BME280;9208;42.688;23.404;2023-02-22T12:20:46;95580.09;;;17.58;36.07
18167;BME280;9208;42.688;23.404;2023-02-22T12:23:24;95580.25;;;17.66;36.05
18167;BME280;9208;42.688;23.404;2023-02-22T12:28:35;95570.78;;;17.80;36.03
18167;BME280;9208;42.688;23.404;2023-02-22T12:36:42;95559.63;;;18.04;36.30
18167;BME280;9208;42.688;23.404;2023-02-22T12:39:23;95562.88;;;18.08;35.76
18167;BME280;9208;42.688;23.404;2023-02-22T12:41:54;95567.06;;;18.14;35.75
18167;BME280;9208;42.688;23.404;2023-02-22T12:44:27;95563.53;;;18.14;35.63
18167;BME280;9208;42.688;23.404;2023-02-22T12:46:56;95568.50;;;18.21;35.12
18167;BME280;9208;42.688;23.404;2023-02-22T12:49:39;95568.19;;;18.24;35.15
18167;BME280;9208;42.688;23.404;2023-02-22T12:52:13;95563.41;;;18.25;35.00
18167;BME280;9208;42.688;23.404;2023-02-22T12:54:53;95567.66;;;18.26;34.86
18167;BME280;9208;42.688;23.404;2023-02-22T12:57:51;95565.63;;;18.26;34.55
18167;BME280;9208;42.688;23.404;2023-02-22T13:00:23;95574.19;;;18.28;34.38
18167;BME280;9208;42.688;23.404;2023-02-22T13:06:27;95570.66;;;18.28;34.00
18167;BME280;9208;42.688;23.404;2023-02-22T13:20:00;95575.59;;;18.41;33.28
18167;BME280;9208;42.688;23.404;2023-02-22T13:22:44;95591.03;;;18.36;32.67
18167;BME280;9208;42.688;23.404;2023-02-22T13:25:15;95593.94;;;18.25;32.35
18167;BME280;9208;42.688;23.404;2023-02-22T13:27:46;95580.50;;;18.29;32.78
18167;BME280;9208;42.688;23.404;2023-02-22T13:30:20;95587.28;;;18.33;32.62
18167;BME280;9208;42.688;23.404;2023-02-22T13:49:20;95575.41;;;18.33;32.37
18167;BME280;9208;42.688;23.404;2023-02-22T13:51:52;95592.34;;;18.29;31.70
18167;BME280;9208;42.688;23.404;2023-02-22T13:54:21;95598.38;;;18.33;31.57
18167;BME280;9208;42.688;23.404;2023-02-22T13:56:50;95601.59;;;18.38;31.38
18167;BME280;9208;42.688;23.404;2023-02-22T14:01:53;95581.88;;;18.41;32.32
18167;BME280;9208;42.688;23.404;2023-02-22T14:09:53;95559.78;;;18.30;33.18
18167;BME280;9208;42.688;23.404;2023-02-22T14:17:42;95567.09;;;18.33;32.87
18167;BME280;9208;42.688;23.404;2023-02-22T14:22:41;95576.09;;;18.39;32.41
18167;BME280;9208;42.688;23.404;2023-02-22T14:25:39;95574.81;;;18.40;32.43
18167;BME280;9208;42.688;23.404;2023-02-22T14:31:04;95588.19;;;18.42;31.57
18167;BME280;9208;42.688;23.404;2023-02-22T14:36:15;95580.59;;;18.42;31.92
18167;BME280;9208;42.688;23.404;2023-02-22T14:38:43;95572.56;;;18.38;32.39
18167;BME280;9208;42.688;23.404;2023-02-22T14:41:12;95568.06;;;18.35;32.47
18167;BME280;9208;42.688;23.404;2023-02-22T14:43:42;95568.06;;;18.35;32.03
18167;BME280;9208;42.688;23.404;2023-02-22T14:46:12;95576.16;;;18.33;31.96
18167;BME280;9208;42.688;23.404;2023-02-22T14:48:42;95568.50;;;18.39;32.36
18167;BME280;9208;42.688;23.404;2023-02-22T14:51:24;95558.16;;;18.40;32.70
18167;BME280;9208;42.688;23.404;2023-02-22T14:54:02;95565.53;;;18.38;32.34
18167;BME280;9208;42.688;23.404;2023-02-22T14:56:36;95574.19;;;18.28;32.00
18167;BME280;9208;42.688;23.404;2023-02-22T15:01:43;95573.91;;;18.13;31.74
18167;BME280;9208;42.688;23.404;2023-02-22T15:04:22;95579.44;;;18.13;31.39
18167;BME280;9208;42.688;23.404;2023-02-22T15:06:50;95571.84;;;18.14;31.64
18167;BME280;9208;42.688;23.404;2023-02-22T15:09:27;95570.81;;;18.17;31.83
18167;BME280;9208;42.688;23.404;2023-02-22T15:14:38;95562.81;;;18.13;32.56
18167;BME280;9208;42.688;23.404;2023-02-22T15:17:12;95549.66;;;18.14;32.92
18167;BME280;9208;42.688;23.404;2023-02-22T15:19:41;95545.91;;;18.11;32.82
18167;BME280;9208;42.688;23.404;2023-02-22T15:22:18;95548.69;;;18.11;33.15
18167;BME280;9208;42.688;23.404;2023-02-22T15:24:55;95535.66;;;18.06;33.73
18167;BME280;9208;42.688;23.404;2023-02-22T15:27:22;95527.09;;;18.04;34.19
18167;BME280;9208;42.688;23.404;2023-02-22T15:29:48;95520.19;;;17.92;34.56
18167;BME280;9208;42.688;23.404;2023-02-22T15:34:51;95513.16;;;17.91;34.84
18167;BME280;9208;42.688;23.404;2023-02-22T15:37:24;95506.38;;;17.87;35.20
18167;BME280;9208;42.688;23.404;2023-02-22T15:39:52;95501.38;;;17.85;35.38
18167;BME280;9208;42.688;23.404;2023-02-22T15:42:24;95501.66;;;17.82;35.68
18167;BME280;9208;42.688;23.404;2023-02-22T15:44:52;95491.63;;;17.79;35.77